Time;durP1;ratioP1;P1;durP2;ratioP2;P2;SDS_P1;SDS_P2;PMS_P1;PMS_P2;Temp;Humidity;BMP_temperature;BMP_pressure;BME280_temperature;BME280_humidity;BME280_pressure;Samples;Min_cycle;Max_cycle;Signal;HPM_P1;HPM_P2
2022/12/17 13:07:46;;;;;;;99.95;47.50;;;0.70;99.90;;;;;;5043249;28;20148;-52
2022/12/17 13:10:21;;;;;;;92.07;42.47;;;0.60;99.90;;;;;;5046495;28;20048;-44
2022/12/17 13:12:48;;;;;;;98.03;48.70;;;0.60;99.90;;;;;;5050021;28;20076;-51
2022/12/17 13:15:30;;;;;;;100.97;48.55;;;0.50;99.90;;;;;;5045537;28;20457;-53
2022/12/17 13:17:58;;;;;;;;;;;0.60;99.90;;;;;;5044874;28;20140;-46
2022/12/17 13:20:29;;;;;;;96.80;45.00;;;0.60;99.90;;;;;;5041413;28;20027;-51
2022/12/17 13:23:16;;;;;;;97.13;48.00;;;0.50;99.90;;;;;;5050693;28;20459;-48
2022/12/17 13:25:43;;;;;;;101.78;48.03;;;0.60;99.90;;;;;;5052058;28;20084;-53
2022/12/17 13:28:28;;;;;;;102.25;48.95;;;0.50;99.90;;;;;;5053752;28;20064;-53
2022/12/17 13:31:03;;;;;;;90.35;42.65;;;0.60;99.90;;;;;;5050370;28;20044;-51
2022/12/17 13:33:32;;;;;;;96.07;45.30;;;0.50;99.90;;;;;;5054418;28;20049;-54
2022/12/17 13:36:04;;;;;;;98.25;45.92;;;0.50;99.90;;;;;;5054005;28;20455;-52
2022/12/17 13:38:36;;;;;;;124.93;62.58;;;0.50;99.90;;;;;;5054993;28;20136;-52
2022/12/17 13:41:06;;;;;;;108.20;52.47;;;0.40;99.90;;;;;;5054587;28;20080;-49
2022/12/17 13:43:33;;;;;;;93.88;47.28;;;0.40;99.90;;;;;;5048802;28;20103;-49
2022/12/17 13:46:00;;;;;;;100.95;47.28;;;0.40;99.90;;;;;;5047405;28;20135;-48
2022/12/17 13:48:29;;;;;;;98.20;46.65;;;0.40;99.90;;;;;;5050454;28;20083;-51
2022/12/17 13:50:58;;;;;;;102.78;46.78;;;0.40;99.90;;;;;;5047655;28;20060;-53
2022/12/17 13:53:25;;;;;;;100.30;46.80;;;0.40;99.90;;;;;;5053878;28;20499;-50
2022/12/17 13:55:52;;;;;;;100.93;46.72;;;0.30;99.90;;;;;;5053325;28;20128;-52
2022/12/17 13:58:21;;;;;;;101.03;46.47;;;0.40;99.90;;;;;;5055020;28;20045;-52
2022/12/17 14:00:48;;;;;;;101.35;48.65;;;0.30;99.90;;;;;;5052162;28;20128;-50
2022/12/17 14:03:19;;;;;;;101.25;46.78;;;0.30;99.90;;;;;;5050673;28;20052;-47
2022/12/17 14:05:48;;;;;;;98.50;43.60;;;0.40;99.90;;;;;;5047356;28;20079;-48
2022/12/17 14:08:18;;;;;;;94.25;43.65;;;0.30;99.90;;;;;;5048177;28;20060;-46
2022/12/17 14:10:47;;;;;;;89.35;44.42;;;0.20;99.90;;;;;;5052536;28;20546;-43
2022/12/17 14:13:13;;;;;;;96.90;45.20;;;0.20;99.90;;;;;;5045662;28;20129;-50
2022/12/17 14:15:41;;;;;;;95.13;43.63;;;0.20;99.90;;;;;;5049444;28;20048;-46
2022/12/17 14:18:10;;;;;;;96.57;43.35;;;0.10;99.90;;;;;;5049081;28;20127;-47
2022/12/17 14:20:37;;;;;;;98.10;44.55;;;0.20;99.90;;;;;;5049595;28;20090;-46
2022/12/17 14:23:06;;;;;;;107.28;47.03;;;0.10;99.90;;;;;;5051875;28;20049;-46
2022/12/17 14:25:34;;;;;;;108.15;48.20;;;0.10;99.90;;;;;;5050847;28;20505;-49
2022/12/17 14:28:02;;;;;;;109.35;51.00;;;0.10;99.90;;;;;;5048886;28;20052;-47
2022/12/17 14:30:34;;;;;;;98.35;48.25;;;0.20;99.90;;;;;;5050228;28;20080;-46
2022/12/17 14:33:01;;;;;;;97.60;44.17;;;0.10;99.90;;;;;;5043026;28;20143;-48
2022/12/17 14:35:29;;;;;;;97.22;44.47;;;0.10;99.90;;;;;;5051461;28;20140;-47
2022/12/17 14:37:56;;;;;;;94.13;40.88;;;0.00;99.90;;;;;;5049618;28;20087;-42
2022/12/17 14:40:24;;;;;;;97.47;44.08;;;0.00;99.90;;;;;;5051669;28;20147;-48
2022/12/17 14:42:51;;;;;;;100.82;45.90;;;-0.10;99.90;;;;;;5050455;28;20507;-47
2022/12/17 14:45:22;;;;;;;94.35;44.22;;;-0.10;99.90;;;;;;5049708;28;20452;-47
2022/12/17 14:47:53;;;;;;;96.85;42.67;;;-0.20;99.90;;;;;;5052805;28;20091;-49
2022/12/17 14:50:31;;;;;;;98.45;44.22;;;-0.20;99.90;;;;;;5057448;28;20072;-42
2022/12/17 14:52:58;;;;;;;98.70;44.05;;;-0.20;99.90;;;;;;5060355;28;20084;-47
2022/12/17 14:55:30;;;;;;;101.55;43.60;;;-0.20;99.90;;;;;;5052194;28;20048;-46
2022/12/17 14:58:08;;;;;;;103.95;44.80;;;-0.20;99.90;;;;;;5053678;28;20557;-49
2022/12/17 15:00:35;;;;;;;101.45;43.70;;;-0.20;99.90;;;;;;5061046;28;20095;-47
2022/12/17 15:03:01;;;;;;;100.22;43.60;;;-0.30;99.90;;;;;;5058830;28;20130;-47
2022/12/17 15:05:28;;;;;;;101.03;42.17;;;-0.30;99.90;;;;;;5067555;28;20128;-51
2022/12/17 15:07:55;;;;;;;103.53;44.20;;;-0.30;99.90;;;;;;5068075;28;20136;-47
2022/12/17 15:10:22;;;;;;;105.88;44.10;;;-0.30;99.90;;;;;;5053173;28;20053;-46
2022/12/17 15:12:51;;;;;;;98.88;41.97;;;-0.30;99.90;;;;;;5048783;28;20051;-46
2022/12/17 15:15:19;;;;;;;94.85;38.42;;;-0.40;99.90;;;;;;5048098;28;20508;-48
2022/12/17 15:17:46;;;;;;;103.43;43.38;;;-0.40;99.90;;;;;;5053552;28;20057;-46
2022/12/17 15:20:16;;;;;;;105.53;42.80;;;-0.40;99.90;;;;;;5054469;28;20053;-46
2022/12/17 15:22:43;;;;;;;120.50;52.50;;;-0.40;99.90;;;;;;5051734;28;20473;-48
2022/12/17 15:25:11;;;;;;;143.50;67.85;;;-0.40;99.90;;;;;;5048923;28;20077;-50
2022/12/17 15:27:38;;;;;;;132.43;59.50;;;-0.40;99.90;;;;;;5060176;28;20081;-39
2022/12/17 15:30:07;;;;;;;125.50;55.35;;;-0.50;99.90;;;;;;5052564;28;20056;-43
2022/12/17 15:32:34;;;;;;;229.95;108.28;;;-0.50;99.90;;;;;;5049984;28;20060;-48
2022/12/17 15:35:01;;;;;;;122.20;52.78;;;-0.50;99.90;;;;;;5051272;28;20040;-43
2022/12/17 15:37:28;;;;;;;117.05;49.10;;;-0.50;99.90;;;;;;5048890;28;20469;-47
2022/12/17 15:39:57;;;;;;;105.22;43.55;;;-0.50;99.90;;;;;;5051793;28;20044;-48
2022/12/17 15:45:10;;;;;;;99.43;41.17;;;-0.60;99.90;;;;;;5053351;28;20405;-47
2022/12/17 15:47:37;;;;;;;106.65;44.70;;;-0.50;99.90;;;;;;5052589;28;20080;-48
2022/12/17 15:50:04;;;;;;;101.35;40.35;;;-0.60;99.90;;;;;;5053855;28;20056;-48
2022/12/17 15:52:31;;;;;;;110.72;45.22;;;-0.60;99.90;;;;;;5052573;28;20088;-44
2022/12/17 15:54:58;;;;;;;107.25;42.13;;;-0.40;99.90;;;;;;5053390;28;20493;-46
2022/12/17 15:57:25;;;;;;;104.38;41.22;;;-0.60;99.90;;;;;;5050669;28;20080;-50
2022/12/17 15:59:51;;;;;;;100.13;38.38;;;-0.60;99.90;;;;;;5050411;28;20076;-42
2022/12/17 16:02:19;;;;;;;105.68;40.78;;;-0.70;99.90;;;;;;5052847;28;20450;-48
2022/12/17 16:04:46;;;;;;;106.68;41.78;;;-0.70;99.90;;;;;;5052317;28;20084;-45
2022/12/17 16:07:14;;;;;;;117.60;49.00;;;-0.80;99.90;;;;;;5053515;28;20057;-45
2022/12/17 16:09:40;;;;;;;116.40;45.47;;;-0.80;99.90;;;;;;5049466;28;20044;-48
2022/12/17 16:12:07;;;;;;;108.10;44.00;;;-0.90;99.90;;;;;;5047953;28;20578;-45
2022/12/17 16:14:34;;;;;;;124.50;50.65;;;-0.90;99.90;;;;;;5049817;28;20477;-48
2022/12/17 16:17:01;;;;;;;112.13;42.47;;;-0.90;99.90;;;;;;5052683;28;20154;-48
2022/12/17 16:19:29;;;;;;;98.70;39.53;;;-0.90;99.90;;;;;;5050415;28;20107;-48
2022/12/17 16:21:56;;;;;;;114.03;44.97;;;-0.90;99.90;;;;;;5050477;28;20037;-50
2022/12/17 16:24:23;;;;;;;122.18;47.80;;;-1.00;99.90;;;;;;5051931;28;20053;-47
2022/12/17 16:26:49;;;;;;;119.18;45.20;;;-1.00;99.90;;;;;;5052923;28;20484;-47
2022/12/17 16:29:16;;;;;;;112.43;45.50;;;-1.00;99.90;;;;;;5051344;28;20048;-43
2022/12/17 16:31:44;;;;;;;113.55;40.70;;;-1.00;99.90;;;;;;5050791;28;20061;-48
2022/12/17 16:34:12;;;;;;;108.70;40.92;;;-1.00;99.90;;;;;;5048637;28;20045;-46
2022/12/17 16:36:40;;;;;;;123.57;49.95;;;-1.00;99.90;;;;;;5048076;28;20076;-50
2022/12/17 16:39:06;;;;;;;113.20;41.13;;;-1.00;99.90;;;;;;5045333;28;20536;-48
2022/12/17 16:41:33;;;;;;;118.20;42.60;;;-1.00;99.90;;;;;;5047902;28;20568;-41
2022/12/17 16:44:00;;;;;;;123.25;43.58;;;-1.00;99.90;;;;;;5051222;28;20094;-47
2022/12/17 16:46:28;;;;;;;120.05;44.15;;;-1.00;99.90;;;;;;5050033;28;20056;-46
2022/12/17 16:48:55;;;;;;;117.75;43.22;;;-1.10;99.90;;;;;;5051811;28;20045;-44
2022/12/17 16:51:22;;;;;;;101.07;36.67;;;-1.10;99.90;;;;;;5049697;28;20080;-47
2022/12/17 16:53:51;;;;;;;226.93;98.70;;;-1.10;99.90;;;;;;5048314;28;20080;-48
2022/12/17 16:56:19;;;;;;;130.85;52.53;;;-1.10;99.90;;;;;;5047214;28;20083;-47
2022/12/17 16:58:45;;;;;;;115.35;44.53;;;-1.10;99.90;;;;;;5051550;28;20130;-48
2022/12/17 17:01:12;;;;;;;111.53;43.05;;;-1.10;99.90;;;;;;5047870;28;20056;-49
2022/12/17 17:03:40;;;;;;;120.57;44.53;;;-1.10;99.90;;;;;;5050102;28;20403;-47
2022/12/17 17:06:07;;;;;;;112.95;42.45;;;-1.10;99.90;;;;;;5048687;28;20054;-46
2022/12/17 17:08:34;;;;;;;117.13;44.60;;;-1.10;99.90;;;;;;5049284;28;20103;-42
2022/12/17 17:11:11;;;;;;;105.30;41.95;;;-1.10;99.90;;;;;;5048009;28;20087;-47
2022/12/17 17:13:38;;;;;;;108.05;41.42;;;-1.10;99.90;;;;;;5048047;28;20049;-41
2022/12/17 17:16:05;;;;;;;102.90;41.60;;;-1.20;99.90;;;;;;5048976;28;20057;-47
2022/12/17 17:18:32;;;;;;;117.20;47.10;;;-1.20;99.90;;;;;;5050832;28;20408;-46
2022/12/17 17:21:24;;;;;;;116.18;45.35;;;-1.20;99.90;;;;;;5046869;28;20551;-46
2022/12/17 17:23:52;;;;;;;125.05;51.72;;;-1.30;99.90;;;;;;5051160;28;20129;-47
2022/12/17 17:26:20;;;;;;;118.30;44.90;;;-1.30;99.90;;;;;;5051272;28;20143;-42
2022/12/17 17:28:47;;;;;;;140.68;59.75;;;-1.30;99.90;;;;;;5046112;28;20049;-45
2022/12/17 17:31:15;;;;;;;127.15;50.95;;;-1.30;99.90;;;;;;5049149;28;20091;-45
2022/12/17 17:33:42;;;;;;;111.88;43.25;;;-1.30;99.90;;;;;;5051143;28;20516;-43
2022/12/17 17:36:10;;;;;;;113.72;44.72;;;-1.30;99.90;;;;;;5051403;28;20056;-50
2022/12/17 17:38:38;;;;;;;116.30;43.22;;;-1.40;99.90;;;;;;5048367;28;20524;-45
2022/12/17 17:41:07;;;;;;;116.32;42.70;;;-1.30;99.90;;;;;;5051471;28;20136;-45
2022/12/17 17:43:35;;;;;;;120.32;42.05;;;-1.30;99.90;;;;;;5051266;28;20156;-44
2022/12/17 17:46:05;;;;;;;108.20;41.85;;;-1.30;99.90;;;;;;5050300;28;20089;-47
2022/12/17 17:48:33;;;;;;;118.78;41.67;;;-1.30;99.90;;;;;;5049444;28;20142;-49
2022/12/17 17:51:00;;;;;;;117.88;43.50;;;-1.40;99.90;;;;;;5051767;28;20493;-45
2022/12/17 17:53:27;;;;;;;118.38;43.50;;;-1.30;99.90;;;;;;5050544;28;20122;-46
2022/12/17 17:55:53;;;;;;;110.30;41.58;;;-1.40;99.90;;;;;;5048378;28;20124;-49
2022/12/17 17:58:20;;;;;;;116.55;43.20;;;-1.30;99.90;;;;;;5046456;28;20045;-49
2022/12/17 18:00:48;;;;;;;128.98;49.40;;;-1.40;99.90;;;;;;5046854;28;20478;-47
2022/12/17 18:03:15;;;;;;;127.80;42.15;;;-1.30;99.90;;;;;;5047729;28;20094;-46
2022/12/17 18:05:42;;;;;;;126.55;44.70;;;-1.40;99.90;;;;;;5045990;28;20048;-45
2022/12/17 18:08:09;;;;;;;125.88;41.97;;;-1.40;99.90;;;;;;5049240;28;20081;-45
2022/12/17 18:10:36;;;;;;;118.35;43.92;;;-1.40;99.90;;;;;;5053331;28;20098;-43
2022/12/17 18:15:48;;;;;;;118.15;44.00;;;-1.40;99.90;;;;;;5053901;28;20049;-47
2022/12/17 18:18:15;;;;;;;128.27;45.38;;;-1.50;99.90;;;;;;5054679;28;20571;-46
2022/12/17 18:20:42;;;;;;;119.20;44.90;;;-1.40;99.90;;;;;;5053560;28;20088;-49
2022/12/17 18:23:09;;;;;;;115.90;43.95;;;-1.40;99.90;;;;;;5054610;28;20088;-48
2022/12/17 18:25:36;;;;;;;177.30;71.72;;;-1.50;99.90;;;;;;5054245;28;20045;-49
2022/12/17 18:28:03;;;;;;;139.18;53.88;;;-1.50;99.90;;;;;;5049798;28;20135;-50
2022/12/17 18:30:30;;;;;;;123.78;48.80;;;-1.50;99.90;;;;;;5054881;28;20048;-43
2022/12/17 18:32:58;;;;;;;125.10;49.78;;;-1.50;99.90;;;;;;5051685;28;20457;-49
2022/12/17 18:35:26;;;;;;;121.20;49.55;;;-1.50;99.90;;;;;;5051186;28;20133;-49
2022/12/17 18:37:53;;;;;;;128.45;46.72;;;-1.50;99.90;;;;;;5048409;28;20103;-44
2022/12/17 18:40:19;;;;;;;120.07;49.10;;;-1.50;99.90;;;;;;5050852;28;20481;-50
2022/12/17 18:45:30;;;;;;;115.32;45.97;;;-1.50;99.90;;;;;;5052879;28;20056;-42
2022/12/17 18:47:59;;;;;;;123.68;48.83;;;-1.50;99.90;;;;;;5048891;28;20077;-51
2022/12/17 18:50:25;;;;;;;110.07;44.63;;;-1.50;99.90;;;;;;5052770;28;20128;-49
2022/12/17 18:52:52;;;;;;;110.80;42.03;;;-1.50;99.90;;;;;;5051860;28;20052;-47
2022/12/17 18:55:19;;;;;;;114.40;44.00;;;-1.60;99.90;;;;;;5049723;28;20378;-51
2022/12/17 18:57:46;;;;;;;102.90;43.05;;;-1.60;99.90;;;;;;5052841;28;20053;-50
2022/12/17 19:00:13;;;;;;;116.38;48.17;;;-1.60;99.90;;;;;;5052843;28;20137;-49
2022/12/17 19:02:40;;;;;;;108.47;44.53;;;-1.60;99.90;;;;;;5054350;28;20492;-47
2022/12/17 19:05:09;;;;;;;108.15;46.45;;;-1.70;99.90;;;;;;5052142;28;20073;-47
2022/12/17 19:07:35;;;;;;;109.55;46.83;;;-1.70;99.90;;;;;;5051644;28;20088;-38
2022/12/17 19:10:02;;;;;;;105.10;47.38;;;-1.70;99.90;;;;;;5052748;28;20455;-49
2022/12/17 19:12:29;;;;;;;104.65;47.72;;;-1.80;99.90;;;;;;5050674;28;20095;-49
2022/12/17 19:14:56;;;;;;;109.93;48.25;;;-1.80;99.90;;;;;;5052002;28;20115;-48
2022/12/17 19:17:23;;;;;;;117.13;50.65;;;-1.80;99.90;;;;;;5052222;28;20088;-49
2022/12/17 19:19:49;;;;;;;105.70;47.15;;;-1.80;99.90;;;;;;5053892;28;20053;-46
2022/12/17 19:22:18;;;;;;;111.50;47.80;;;-1.70;99.90;;;;;;5053512;28;20346;-48
2022/12/17 19:24:45;;;;;;;114.82;49.30;;;-1.70;99.90;;;;;;5053257;28;20052;-49
2022/12/17 19:27:11;;;;;;;107.65;46.65;;;-1.70;99.90;;;;;;5051407;28;20087;-42
2022/12/17 19:29:38;;;;;;;111.63;49.75;;;-1.80;99.90;;;;;;5048748;28;20056;-49
2022/12/17 19:32:05;;;;;;;118.70;51.60;;;-1.80;99.90;;;;;;5052309;28;20485;-50
2022/12/17 19:34:33;;;;;;;129.85;59.95;;;-1.80;99.90;;;;;;5050729;28;20048;-43
2022/12/17 19:37:00;;;;;;;117.47;51.20;;;-1.70;99.90;;;;;;5050061;28;20055;-49
2022/12/17 19:39:28;;;;;;;122.43;53.00;;;-1.70;99.90;;;;;;5054030;28;20088;-46
2022/12/17 19:41:55;;;;;;;119.35;53.28;;;-1.70;99.90;;;;;;5053856;28;20102;-49
2022/12/17 19:44:22;;;;;;;118.82;50.42;;;-1.70;99.90;;;;;;5051219;28;20094;-51
2022/12/17 19:46:49;;;;;;;123.35;55.53;;;-1.70;99.90;;;;;;5051458;28;20060;-50
2022/12/17 19:49:16;;;;;;;117.15;51.28;;;-1.70;99.90;;;;;;5052585;28;20513;-48
2022/12/17 19:51:43;;;;;;;108.53;46.15;;;-1.70;99.90;;;;;;5052312;28;20139;-47
2022/12/17 19:54:11;;;;;;;111.03;49.95;;;-1.70;99.90;;;;;;5052316;28;20051;-49
2022/12/17 19:56:39;;;;;;;118.53;50.25;;;-1.80;99.90;;;;;;5052232;28;20053;-44
2022/12/17 19:59:06;;;;;;;112.82;50.53;;;-1.50;99.90;;;;;;5051428;28;20166;-47
2022/12/17 20:01:35;;;;;;;130.60;53.97;;;-1.80;99.90;;;;;;5049771;28;20045;-50
2022/12/17 20:04:02;;;;;;;125.43;54.13;;;-1.80;99.90;;;;;;5052166;28;20052;-48
2022/12/17 20:06:29;;;;;;;120.00;52.20;;;-1.80;99.90;;;;;;5052364;28;20052;-49
2022/12/17 20:08:57;;;;;;;127.15;54.83;;;-1.80;99.90;;;;;;5051829;28;20053;-48
2022/12/17 20:11:33;;;;;;;128.32;55.50;;;-1.80;99.90;;;;;;5053163;28;20084;-51
2022/12/17 20:14:03;;;;;;;139.60;57.45;;;-1.70;99.90;;;;;;5051746;28;20049;-45
2022/12/17 20:16:30;;;;;;;152.65;63.38;;;-1.70;99.90;;;;;;5050545;28;20057;-47
2022/12/17 20:18:58;;;;;;;135.73;57.70;;;-1.80;99.90;;;;;;5053037;28;20045;-47
2022/12/17 20:21:25;;;;;;;146.77;62.03;;;-1.80;99.90;;;;;;5053106;28;20088;-48
2022/12/17 20:23:52;;;;;;;117.95;51.72;;;-1.90;99.90;;;;;;5051109;28;20493;-42
2022/12/17 20:26:19;;;;;;;118.32;48.13;;;-1.80;99.90;;;;;;5049276;28;20110;-47
2022/12/17 20:28:46;;;;;;;132.50;56.33;;;-1.90;99.90;;;;;;5047947;28;20118;-45
2022/12/17 20:31:14;;;;;;;124.15;53.75;;;-1.90;99.90;;;;;;5050523;28;20098;-48
2022/12/17 20:33:40;;;;;;;123.05;52.35;;;-1.90;99.90;;;;;;5052067;28;20099;-47
2022/12/17 20:36:08;;;;;;;130.85;55.85;;;-1.90;99.90;;;;;;5047782;28;20136;-43
2022/12/17 20:38:36;;;;;;;127.45;53.17;;;-1.90;99.90;;;;;;5050762;28;20056;-49
2022/12/17 20:41:08;;;;;;;106.65;42.53;;;-1.90;99.90;;;;;;5050477;28;20052;-48
2022/12/17 20:43:34;;;;;;;113.80;44.40;;;-2.00;99.90;;;;;;5049682;28;20072;-49
2022/12/17 20:46:01;;;;;;;108.75;44.72;;;-2.00;99.90;;;;;;5049622;28;20493;-47
2022/12/17 20:48:29;;;;;;;118.35;47.35;;;-2.00;99.90;;;;;;5050105;28;20130;-48
2022/12/17 20:50:56;;;;;;;112.28;45.45;;;-2.00;99.90;;;;;;5050692;28;20037;-47
2022/12/17 20:53:23;;;;;;;108.53;46.05;;;-2.10;99.90;;;;;;5049760;28;20132;-45
2022/12/17 20:55:59;;;;;;;122.90;48.05;;;-2.10;99.90;;;;;;5049012;28;20061;-47
2022/12/17 20:58:26;;;;;;;116.88;46.58;;;-2.10;99.90;;;;;;5049141;28;20455;-46
2022/12/17 21:00:53;;;;;;;121.60;47.90;;;-2.00;99.90;;;;;;5048265;28;20076;-45
2022/12/17 21:03:20;;;;;;;117.32;45.55;;;-2.10;99.90;;;;;;5050525;28;20111;-47
2022/12/17 21:05:48;;;;;;;110.20;43.97;;;-2.10;99.90;;;;;;5049704;28;20094;-47
2022/12/17 21:08:14;;;;;;;118.28;46.17;;;-2.10;99.90;;;;;;5045548;28;20126;-48
2022/12/17 21:10:41;;;;;;;112.63;47.53;;;-2.20;99.90;;;;;;5048814;28;20456;-42
2022/12/17 21:15:54;;;;;;;121.18;47.72;;;-2.10;99.90;;;;;;5051624;28;20049;-47
2022/12/17 21:18:20;;;;;;;123.32;45.85;;;-2.20;99.90;;;;;;5047175;28;20045;-45
2022/12/17 21:20:56;;;;;;;131.82;47.90;;;-2.20;99.90;;;;;;5047236;28;20523;-47
2022/12/17 21:23:22;;;;;;;117.80;46.60;;;-2.20;99.90;;;;;;5046981;28;20082;-46
2022/12/17 21:25:59;;;;;;;117.68;45.40;;;-2.20;99.90;;;;;;5046599;28;20690;-47
2022/12/17 21:28:26;;;;;;;115.18;43.78;;;-2.20;99.90;;;;;;5045547;28;20095;-46
2022/12/17 21:30:53;;;;;;;121.65;46.85;;;-2.20;99.90;;;;;;5042765;28;20041;-50
2022/12/17 21:33:20;;;;;;;116.75;45.65;;;-2.20;99.90;;;;;;5046241;28;20452;-46
2022/12/17 21:35:46;;;;;;;119.25;45.83;;;-2.20;99.90;;;;;;5048903;28;20551;-48
2022/12/17 21:38:15;;;;;;;127.50;49.90;;;-2.20;99.90;;;;;;5047193;28;20088;-45
2022/12/17 21:40:41;;;;;;;133.55;48.75;;;-2.20;99.90;;;;;;5049363;28;20080;-47
2022/12/17 21:43:09;;;;;;;129.15;47.30;;;-2.20;99.90;;;;;;5051512;28;20507;-47
2022/12/17 21:45:37;;;;;;;133.43;47.28;;;-2.20;99.90;;;;;;5053371;28;20084;-44
2022/12/17 21:48:04;;;;;;;139.90;49.80;;;-2.20;99.90;;;;;;5054928;28;20057;-47
2022/12/17 21:50:31;;;;;;;136.05;49.80;;;-2.20;99.90;;;;;;5053577;28;20094;-46
2022/12/17 21:52:58;;;;;;;127.45;47.10;;;-2.20;99.90;;;;;;5051713;28;20514;-46
2022/12/17 21:55:26;;;;;;;131.60;46.17;;;-2.20;99.90;;;;;;5049972;28;20485;-46
2022/12/17 21:57:53;;;;;;;122.93;44.58;;;-2.30;99.90;;;;;;5053098;28;20820;-48
2022/12/17 22:00:23;;;;;;;118.72;45.80;;;-2.20;99.90;;;;;;5053071;28;20084;-48
2022/12/17 22:02:49;;;;;;;123.85;44.45;;;-2.30;99.90;;;;;;5050813;28;20080;-48
2022/12/17 22:05:16;;;;;;;133.05;45.35;;;-2.30;99.90;;;;;;5053403;28;20468;-46
2022/12/17 22:07:43;;;;;;;120.55;42.55;;;-2.20;99.90;;;;;;5052524;28;20087;-46
2022/12/17 22:10:10;;;;;;;120.75;43.17;;;-2.30;99.90;;;;;;5053022;28;20042;-49
2022/12/17 22:15:23;;;;;;;122.18;45.53;;;-2.40;99.90;;;;;;5055038;28;20045;-50
2022/12/17 22:17:49;;;;;;;130.38;45.25;;;-2.40;99.90;;;;;;5052912;28;20546;-49
2022/12/17 22:20:16;;;;;;;121.60;43.28;;;-2.40;99.90;;;;;;5053016;28;20049;-44
2022/12/17 22:22:44;;;;;;;126.05;44.45;;;-2.40;99.90;;;;;;5050775;28;20098;-45
2022/12/17 22:25:11;;;;;;;134.05;45.75;;;-2.40;99.90;;;;;;5049499;28;20061;-48
2022/12/17 22:27:39;;;;;;;136.27;45.00;;;-2.40;99.90;;;;;;5053657;28;20048;-48
2022/12/17 22:33:03;;;;;;;117.88;42.65;;;-2.40;99.90;;;;;;5050404;28;20496;-39
2022/12/17 22:35:34;;;;;;;129.07;44.17;;;-2.50;99.90;;;;;;5047138;28;20144;-46
2022/12/17 22:38:00;;;;;;;135.00;45.33;;;-2.40;99.90;;;;;;5049034;28;20053;-40
2022/12/17 22:40:27;;;;;;;122.57;40.67;;;-2.30;99.90;;;;;;5050668;28;20554;-47
2022/12/17 22:45:40;;;;;;;107.53;39.25;;;-2.50;99.90;;;;;;5050357;28;20049;-46
2022/12/17 22:48:09;;;;;;;118.85;42.33;;;-2.50;99.90;;;;;;5052042;28;20091;-50
2022/12/17 22:50:35;;;;;;;111.80;40.22;;;-2.50;99.90;;;;;;5032986;28;20137;-46
2022/12/17 22:53:02;;;;;;;119.95;41.72;;;-2.60;99.90;;;;;;5050272;28;20045;-46
2022/12/17 22:55:29;;;;;;;106.03;39.58;;;-2.50;99.90;;;;;;5051274;28;20440;-43
2022/12/17 22:57:57;;;;;;;104.35;37.00;;;-2.50;99.90;;;;;;5049499;28;20057;-48
2022/12/17 23:00:26;;;;;;;102.75;37.70;;;-2.50;99.90;;;;;;5047324;28;20041;-46
2022/12/17 23:02:53;;;;;;;105.80;36.58;;;-2.60;99.90;;;;;;5051744;28;20045;-47
2022/12/17 23:05:20;;;;;;;105.22;37.85;;;-2.60;99.90;;;;;;5054623;28;20052;-43
2022/12/17 23:07:47;;;;;;;108.65;39.05;;;-2.60;99.90;;;;;;5053214;28;20543;-45
2022/12/17 23:10:14;;;;;;;106.05;39.17;;;-2.70;99.90;;;;;;5049818;28;20102;-44
2022/12/17 23:12:53;;;;;;;107.82;36.72;;;-2.70;99.90;;;;;;5050389;28;20447;-39
2022/12/17 23:15:24;;;;;;;106.45;36.75;;;-2.70;99.90;;;;;;5049230;28;20504;-47
2022/12/17 23:17:52;;;;;;;110.90;40.85;;;-2.80;99.90;;;;;;5052355;28;20080;-45
2022/12/17 23:20:19;;;;;;;111.45;38.78;;;-2.70;99.90;;;;;;5052684;28;20139;-46
2022/12/17 23:22:45;;;;;;;119.75;40.30;;;-2.70;99.90;;;;;;5052489;28;20159;-45
2022/12/17 23:25:12;;;;;;;123.65;41.35;;;-2.80;99.90;;;;;;5052396;28;20056;-47
2022/12/17 23:27:42;;;;;;;127.60;43.97;;;-2.80;99.90;;;;;;5052761;28;20459;-46
2022/12/17 23:30:10;;;;;;;139.48;45.20;;;-2.70;99.90;;;;;;5053210;28;20489;-47
2022/12/17 23:32:38;;;;;;;123.93;41.42;;;-2.70;99.90;;;;;;5052139;28;20485;-50
2022/12/17 23:35:05;;;;;;;129.57;41.90;;;-2.70;99.90;;;;;;5051628;28;20141;-50
2022/12/17 23:37:32;;;;;;;122.70;40.78;;;-2.70;99.90;;;;;;5052340;28;20088;-45
2022/12/17 23:39:59;;;;;;;111.95;39.47;;;-2.70;99.90;;;;;;5051964;28;20080;-48
2022/12/17 23:42:26;;;;;;;108.07;38.35;;;-2.80;99.90;;;;;;5051473;28;20085;-46
2022/12/17 23:44:53;;;;;;;110.28;37.95;;;-2.90;99.90;;;;;;5053361;28;20087;-45
2022/12/17 23:47:19;;;;;;;113.75;39.40;;;-2.90;99.90;;;;;;5052516;28;20103;-49
2022/12/17 23:49:48;;;;;;;108.50;39.90;;;-2.80;99.90;;;;;;5049244;28;20569;-48
2022/12/17 23:52:15;;;;;;;113.22;38.67;;;-2.90;99.90;;;;;;5049403;28;20084;-49
2022/12/17 23:54:41;;;;;;;108.13;38.05;;;-2.90;99.90;;;;;;5051969;28;20049;-47
2022/12/17 23:57:08;;;;;;;117.40;40.88;;;-2.90;99.90;;;;;;5051043;28;20102;-48
2022/12/17 23:59:35;;;;;;;115.22;40.78;;;-2.80;99.90;;;;;;5048319;28;20083;-46
